Time;durP1;ratioP1;P1;durP2;ratioP2;P2;SDS_P1;SDS_P2;PMS_P1;PMS_P2;Temp;Humidity;BMP_temperature;BMP_pressure;BME280_temperature;BME280_humidity;BME280_pressure;Samples;Min_cycle;Max_cycle;Signal;HPM_P1;HPM_P2
2022/01/19 00:01:03;;;;;;;4.00;3.27;;;;;;;-0.84;66.73;96148.75;5051875;28;20163;-87
2022/01/19 00:03:29;;;;;;;8.77;3.40;;;;;;;-1.09;66.20;96136.75;5050464;28;20155;-88
2022/01/19 00:05:54;;;;;;;7.40;3.80;;;;;;;-1.19;66.04;96134.00;5052854;28;20632;-87
2022/01/19 00:08:21;;;;;;;6.60;4.00;;;;;;;-1.42;66.91;96113.28;5057826;28;20244;-87
2022/01/19 00:10:49;;;;;;;9.97;3.70;;;;;;;-1.60;67.35;96126.53;5056917;28;20187;-87
2022/01/19 00:13:14;;;;;;;9.87;4.20;;;;;;;-1.71;67.93;96098.06;5056232;28;20737;-87
2022/01/19 00:15:40;;;;;;;11.13;5.17;;;;;;;-1.23;67.05;96173.06;5062826;28;20208;-87
2022/01/19 00:18:06;;;;;;;9.10;3.97;;;;;;;-1.45;66.75;96126.41;5062645;28;20237;-88
2022/01/19 00:20:33;;;;;;;10.17;3.67;;;;;;;-1.08;66.31;96168.59;5056780;28;20185;-88
2022/01/19 00:23:00;;;;;;;7.60;3.73;;;;;;;-0.95;65.99;96182.31;5053836;28;20728;-88
2022/01/19 00:25:26;;;;;;;9.23;3.30;;;;;;;-1.20;65.68;96157.34;5054207;28;20309;-88
2022/01/19 00:27:51;;;;;;;6.77;2.77;;;;;;;-1.53;65.86;96143.25;5053946;28;20190;-89
2022/01/19 00:30:18;;;;;;;8.43;3.70;;;;;;;-1.30;66.31;96195.91;5053903;28;20171;-88
2022/01/19 00:32:43;;;;;;;7.23;3.40;;;;;;;-1.61;67.07;96165.34;5053079;28;20198;-88
2022/01/19 00:35:11;;;;;;;11.53;4.83;;;;;;;-1.72;67.50;96160.09;5054669;28;20186;-87
2022/01/19 00:37:39;;;;;;;9.23;4.07;;;;;;;-1.77;67.48;96134.59;5053258;28;20558;-87
2022/01/19 00:40:06;;;;;;;15.67;6.27;;;;;;;-1.77;67.39;96133.78;5053313;28;20567;-88
2022/01/19 00:42:32;;;;;;;16.37;6.27;;;;;;;-1.68;67.73;96172.69;5052635;28;20179;-87
2022/01/19 00:44:57;;;;;;;10.17;4.90;;;;;;;-1.35;67.72;96207.47;5057208;28;20179;-88
2022/01/19 00:47:23;;;;;;;7.63;3.80;;;;;;;-1.78;67.98;96161.34;5058639;28;20308;-87
2022/01/19 00:49:48;;;;;;;10.00;3.33;;;;;;;-1.66;68.05;96160.53;5060389;28;20547;-87
2022/01/19 00:52:14;;;;;;;10.57;4.03;;;;;;;-1.77;68.05;96138.94;5056261;28;20209;-87
2022/01/19 00:54:41;;;;;;;12.33;3.77;;;;;;;-1.33;68.01;96208.19;5053044;28;20173;-87
2022/01/19 00:57:07;;;;;;;9.87;4.07;;;;;;;-1.35;67.83;96225.53;5052956;28;20202;-88
2022/01/19 00:59:33;;;;;;;9.40;4.47;;;;;;;-1.41;67.58;96202.72;5052676;28;20600;-87
2022/01/19 01:01:59;;;;;;;8.80;4.53;;;;;;;-1.45;68.01;96185.78;5053071;28;20168;-87
2022/01/19 01:04:25;;;;;;;7.67;4.23;;;;;;;-1.58;67.48;96149.66;5052710;28;20232;-87
2022/01/19 01:06:50;;;;;;;10.27;4.37;;;;;;;-1.38;66.79;96185.25;5052676;28;20230;-87
2022/01/19 01:09:16;;;;;;;13.23;5.07;;;;;;;-1.19;66.85;96197.72;5054885;28;20725;-87
2022/01/19 01:11:59;;;;;;;15.97;5.07;;;;;;;-1.11;66.38;96223.03;5060887;28;20210;-87
2022/01/19 01:18:17;;;;;;;7.37;3.90;;;;;;;-1.24;67.52;96238.56;5059953;28;20178;-87
2022/01/19 01:20:00;;;;;;;8.73;3.40;;;;;;;-1.43;67.92;96197.66;5033850;28;20242;-87
2022/01/19 01:22:26;;;;;;;6.57;2.80;;;;;;;-1.63;67.94;96177.53;5032833;28;20160;-86
2022/01/19 01:24:52;;;;;;;8.77;4.03;;;;;;;-1.58;68.03;96185.81;5033706;28;20176;-87
2022/01/19 01:27:18;;;;;;;11.80;3.90;;;;;;;-1.82;67.91;96153.91;5049166;28;20217;-88
2022/01/19 01:29:44;;;;;;;6.17;3.70;;;;;;;-1.84;68.20;96151.44;5049037;28;20931;-87
2022/01/19 01:32:09;;;;;;;10.87;4.07;;;;;;;-1.35;68.42;96199.72;5048807;28;20203;-87
2022/01/19 01:34:35;;;;;;;9.73;4.13;;;;;;;-1.72;67.83;96137.69;5048944;28;20668;-87
2022/01/19 01:37:01;;;;;;;7.97;3.80;;;;;;;-1.54;67.71;96167.41;5048907;28;20168;-87
2022/01/19 01:39:26;;;;;;;9.53;4.57;;;;;;;-1.54;67.94;96161.41;5048738;28;20260;-87
2022/01/19 01:41:52;;;;;;;9.97;4.50;;;;;;;-1.95;68.55;96123.78;5048751;28;20164;-87
2022/01/19 01:44:17;;;;;;;10.37;4.97;;;;;;;-1.54;68.43;96184.66;5048581;28;20164;-87
2022/01/19 01:47:01;;;;;;;9.00;4.07;;;;;;;-1.82;68.59;96135.84;5048765;28;20175;-87
2022/01/19 01:49:45;;;;;;;11.03;5.23;;;;;;;-1.46;68.22;96179.78;5033897;28;20162;-87
2022/01/19 01:54:56;;;;;;;15.83;5.70;;;;;;;-1.34;68.09;96175.56;5061267;28;20180;-86
2022/01/19 01:57:21;;;;;;;9.80;4.40;;;;;;;-1.78;68.37;96124.38;5063903;28;20167;-86
2022/01/19 01:59:47;;;;;;;9.23;4.27;;;;;;;-1.73;68.15;96128.28;5062292;28;20228;-87
2022/01/19 02:02:14;;;;;;;9.40;4.23;;;;;;;-1.54;68.78;96177.75;5067396;28;20178;-87
2022/01/19 02:04:41;;;;;;;8.30;4.70;;;;;;;-1.81;68.52;96132.31;5071655;28;20624;-87
2022/01/19 02:07:42;;;;;;;8.60;4.07;;;;;;;-1.63;68.92;96167.22;5072931;28;20229;-87
2022/01/19 02:10:18;;;;;;;12.13;3.70;;;;;;;-1.67;68.64;96143.38;5062756;28;20190;-88
2022/01/19 02:24:04;;;;;;;6.10;3.70;;;;;;;-1.52;67.98;96120.84;5053030;28;20205;-88
2022/01/19 02:28:56;;;;;;;10.77;4.27;;;;;;;-1.78;67.62;96060.69;5051483;28;20227;-88
2022/01/19 02:29:59;;;;;;;9.97;4.47;;;;;;;-1.67;67.65;96078.03;5049799;28;20182;-88
2022/01/19 02:40:26;;;;;;;7.33;4.17;;;;;;;-1.36;67.00;96136.91;5061885;28;20189;-88
2022/01/19 02:50:33;;;;;;;12.87;4.37;;;;;;;-1.44;66.44;96128.06;5052791;28;20562;-88
2022/01/19 02:52:59;;;;;;;10.30;4.60;;;;;;;-1.69;66.69;96101.34;5050563;28;20199;-88
2022/01/19 02:55:24;;;;;;;11.83;5.00;;;;;;;-1.47;66.48;96123.13;5051227;28;20658;-88
2022/01/19 02:57:50;;;;;;;9.47;4.40;;;;;;;-1.42;66.67;96152.84;5051276;28;20256;-88
2022/01/19 03:11:09;;;;;;;6.73;3.90;;;;;;;-1.66;67.40;96147.63;5052644;28;20159;-89
2022/01/19 03:13:35;;;;;;;7.33;3.60;;;;;;;-2.00;67.88;96091.50;5051307;28;20210;-89
2022/01/19 03:16:00;;;;;;;8.10;3.50;;;;;;;-1.73;67.48;96128.28;5061010;28;20205;-89
2022/01/19 03:18:26;;;;;;;8.87;4.90;;;;;;;-1.88;68.16;96105.28;5062592;28;20282;-89
2022/01/19 03:20:51;;;;;;;10.17;5.33;;;;;;;-1.57;67.65;96134.09;5058233;28;20163;-89
2022/01/19 03:23:20;;;;;;;7.97;3.70;;;;;;;-1.95;66.94;96082.50;5065769;28;20206;-89
2022/01/19 03:25:47;;;;;;;11.03;4.70;;;;;;;-1.82;66.84;96104.91;5071314;28;20228;-90
2022/01/19 03:28:13;;;;;;;11.07;5.27;;;;;;;-1.54;67.63;96148.50;5072459;28;20616;-89
2022/01/19 03:30:38;;;;;;;14.00;5.73;;;;;;;-1.72;67.49;96118.78;5066150;28;20188;-88
2022/01/19 03:33:04;;;;;;;10.67;5.03;;;;;;;-1.84;66.71;96094.69;5054354;28;20319;-88
2022/01/19 03:35:30;;;;;;;12.03;4.77;;;;;;;-1.91;67.35;96090.88;5058737;28;20179;-88
2022/01/19 03:37:56;;;;;;;8.93;4.37;;;;;;;-1.69;66.64;96114.25;5057064;28;20182;-88
2022/01/19 03:40:22;;;;;;;8.20;4.30;;;;;;;-1.34;66.27;96178.97;5054665;28;20171;-88
2022/01/19 03:42:48;;;;;;;5.13;3.57;;;;;;;-1.59;66.14;96155.75;5050992;28;20320;-88
2022/01/19 03:45:13;;;;;;;5.83;3.37;;;;;;;-1.66;66.56;96152.78;5052636;28;20176;-89
2022/01/19 03:47:43;;;;;;;9.60;4.27;;;;;;;-1.74;66.40;96138.75;5056111;28;20649;-88
2022/01/19 03:50:09;;;;;;;10.73;4.73;;;;;;;-1.59;66.92;96150.59;5054921;28;20293;-88
2022/01/19 03:52:35;;;;;;;10.40;4.63;;;;;;;-1.52;66.26;96164.72;5054517;28;20277;-89
2022/01/19 03:55:01;;;;;;;10.93;4.80;;;;;;;-1.48;66.73;96163.59;5054131;28;20186;-88
2022/01/19 03:57:26;;;;;;;13.50;5.47;;;;;;;-2.04;66.55;96082.28;5055802;28;20683;-88
2022/01/19 03:59:52;;;;;;;13.73;6.73;;;;;;;-1.92;66.59;96105.53;5056082;28;20155;-88
2022/01/19 04:02:19;;;;;;;15.23;6.17;;;;;;;-1.78;66.83;96116.66;5055313;28;20160;-88
2022/01/19 04:04:53;;;;;;;10.20;4.93;;;;;;;-2.02;65.77;96073.53;5055543;28;20641;-88
2022/01/19 04:07:21;;;;;;;14.00;5.63;;;;;;;-1.76;66.29;96125.09;5060929;28;20210;-89
2022/01/19 04:09:46;;;;;;;12.80;5.80;;;;;;;-1.96;66.41;96116.13;5069610;28;20197;-89
2022/01/19 04:12:17;;;;;;;11.70;4.90;;;;;;;-2.09;66.55;96099.84;5063462;28;20206;-88
2022/01/19 04:14:43;;;;;;;12.37;6.23;;;;;;;-1.69;67.07;96181.38;5062292;28;20170;-89
2022/01/19 04:17:15;;;;;;;13.43;5.77;;;;;;;-1.76;66.89;96163.81;5065750;28;20179;-88
2022/01/19 04:19:47;;;;;;;7.80;4.60;;;;;;;-1.56;66.52;96187.34;5065691;28;20170;-88
2022/01/19 04:22:18;;;;;;;9.93;4.93;;;;;;;-1.47;65.66;96177.34;5075391;28;20173;-88
2022/01/19 04:24:47;;;;;;;15.13;6.87;;;;;;;-1.62;65.63;96154.19;5074117;28;20767;-90
2022/01/19 04:29:58;;;;;;;18.80;7.87;;;;;;;-1.44;65.61;96198.59;5075065;28;20597;-87
2022/01/19 04:32:35;;;;;;;18.33;7.90;;;;;;;-1.59;65.86;96171.25;5073667;28;20217;-87
2022/01/19 04:35:05;;;;;;;18.33;8.07;;;;;;;-1.64;65.10;96162.97;5073631;28;20166;-87
2022/01/19 04:37:46;;;;;;;19.97;8.73;;;;;;;-1.67;65.88;96182.09;5068661;28;20184;-86
2022/01/19 04:48:37;;;;;;;25.87;11.90;;;;;;;-1.19;64.93;96216.66;5074782;28;20165;-86
2022/01/19 05:04:54;;;;;;;31.20;13.17;;;;;;;-1.58;65.00;96188.38;5073508;28;20232;-88
2022/01/19 05:07:26;;;;;;;37.00;15.50;;;;;;;-1.37;65.22;96202.41;5072874;28;20707;-88
2022/01/19 05:15:01;;;;;;;35.33;15.67;;;;;;;-1.60;65.00;96164.44;5074177;28;20216;-86
2022/01/19 05:17:27;;;;;;;35.40;16.17;;;;;;;-1.26;64.48;96232.66;5059851;28;20186;-85
2022/01/19 05:19:53;;;;;;;30.30;13.53;;;;;;;-1.52;64.74;96195.72;5061376;28;20175;-85
2022/01/19 05:22:18;;;;;;;43.03;14.53;;;;;;;-1.45;65.19;96235.66;5068629;28;20166;-85
2022/01/19 05:24:45;;;;;;;21.07;9.47;;;;;;;-1.48;65.20;96230.72;5061560;28;20410;-85
2022/01/19 05:27:11;;;;;;;20.03;8.57;;;;;;;-1.62;64.54;96212.75;5064054;28;20182;-85
2022/01/19 05:29:36;;;;;;;20.10;8.23;;;;;;;-1.78;65.60;96194.06;5058204;28;20245;-86
2022/01/19 05:32:02;;;;;;;25.13;11.53;;;;;;;-1.39;65.37;96248.19;5064300;28;20183;-86
2022/01/19 05:34:27;;;;;;;26.80;12.73;;;;;;;-1.55;65.82;96242.38;5061834;28;20209;-84
2022/01/19 05:36:53;;;;;;;21.43;9.97;;;;;;;-1.68;65.66;96210.56;5062901;28;20170;-88
2022/01/19 05:39:18;;;;;;;12.87;6.93;;;;;;;-1.70;65.15;96204.69;5061784;28;20196;-85
2022/01/19 05:41:44;;;;;;;17.13;7.47;;;;;;;-1.83;65.45;96188.38;5062896;28;20171;-87
2022/01/19 05:44:10;;;;;;;14.20;6.73;;;;;;;-1.83;65.69;96184.06;5062260;28;20179;-90
2022/01/19 05:46:36;;;;;;;18.00;8.33;;;;;;;-1.82;65.11;96182.31;5065683;28;20175;-88
2022/01/19 05:49:02;;;;;;;18.27;9.53;;;;;;;-1.65;65.14;96213.78;5056702;28;20170;-88
2022/01/19 05:51:27;;;;;;;26.93;9.77;;;;;;;-1.71;65.72;96197.88;5061557;28;20171;-89
2022/01/19 05:53:53;;;;;;;27.40;9.70;;;;;;;-1.52;65.34;96218.94;5062874;28;20220;-86
2022/01/19 05:56:18;;;;;;;21.80;9.93;;;;;;;-1.72;66.05;96211.69;5066410;28;20166;-87
2022/01/19 05:58:44;;;;;;;20.80;10.57;;;;;;;-1.52;65.37;96237.84;5065681;28;20177;-87
2022/01/19 06:01:09;;;;;;;23.87;9.63;;;;;;;-1.44;65.99;96263.16;5061162;28;20163;-86
2022/01/19 06:03:35;;;;;;;27.70;10.70;;;;;;;-1.26;66.27;96294.66;5055281;28;20589;-88
2022/01/19 06:06:00;;;;;;;21.63;9.87;;;;;;;-1.75;66.64;96220.50;5061805;28;20179;-88
2022/01/19 06:10:57;;;;;;;21.07;9.43;;;;;;;-1.58;66.57;96199.53;5063595;28;20174;-87
2022/01/19 06:13:25;;;;;;;22.97;8.43;;;;;;;-1.34;66.48;96233.19;5055311;28;20213;-87
2022/01/19 06:15:51;;;;;;;21.90;7.77;;;;;;;-0.89;65.59;96287.81;5056827;28;20186;-88
2022/01/19 06:18:17;;;;;;;21.10;10.07;;;;;;;-1.14;66.19;96265.44;5066398;28;20609;-88
2022/01/19 06:20:55;;;;;;;22.13;10.83;;;;;;;-1.15;66.71;96249.09;5056720;28;20194;-89
2022/01/19 06:23:21;;;;;;;30.37;13.03;;;;;;;-1.03;66.56;96257.75;5062885;28;20182;-89
2022/01/19 06:25:47;;;;;;;28.10;13.83;;;;;;;-1.05;66.29;96235.56;5060716;28;20266;-90
2022/01/19 06:28:12;;;;;;;26.13;13.73;;;;;;;-0.82;65.96;96271.78;5063658;28;20211;-87
2022/01/19 06:30:38;;;;;;;29.70;13.70;;;;;;;-0.83;65.05;96241.69;5062079;28;20182;-89
2022/01/19 06:33:05;;;;;;;39.50;15.57;;;;;;;-0.78;65.28;96249.94;5066886;28;20186;-90
2022/01/19 06:35:30;;;;;;;30.60;14.20;;;;;;;-0.54;65.41;96275.03;5062218;28;20175;-89
2022/01/19 06:37:56;;;;;;;41.27;16.93;;;;;;;-0.51;64.81;96239.41;5062897;28;20170;-87
2022/01/19 06:40:25;;;;;;;33.67;15.20;;;;;;;0.29;64.06;96302.63;5060246;28;20247;-88
2022/01/19 06:42:53;;;;;;;27.97;13.10;;;;;;;0.49;62.65;96241.59;5056150;28;20163;-88
2022/01/19 06:45:19;;;;;;;39.77;16.67;;;;;;;1.76;60.48;96305.22;5056071;28;20675;-90
2022/01/19 06:47:44;;;;;;;29.73;14.17;;;;;;;2.07;56.54;96236.13;5061501;28;20171;-89
2022/01/19 06:50:12;;;;;;;29.57;13.83;;;;;;;3.11;54.33;96314.94;5060377;28;20179;-89
2022/01/19 06:52:39;;;;;;;28.13;13.00;;;;;;;2.86;52.83;96250.28;5061151;28;20191;-91
2022/01/19 06:55:08;;;;;;;26.13;12.97;;;;;;;3.24;52.58;96283.47;5066250;28;20197;-89
2022/01/19 06:57:33;;;;;;;30.77;14.57;;;;;;;2.99;52.12;96243.13;5057874;28;20175;-91
2022/01/19 06:59:59;;;;;;;32.33;15.47;;;;;;;2.96;52.67;96256.38;5064925;28;20724;-90
2022/01/19 07:02:24;;;;;;;40.07;14.27;;;;;;;3.26;52.52;96278.97;5060429;28;20185;-91
2022/01/19 07:04:50;;;;;;;26.07;11.97;;;;;;;3.32;52.61;96255.03;5066701;28;20261;-91
2022/01/19 07:07:17;;;;;;;28.10;13.90;;;;;;;4.21;51.35;96313.22;5067445;28;20238;-91
2022/01/19 07:09:44;;;;;;;29.90;12.83;;;;;;;4.84;50.13;96311.84;5060523;28;20179;-89
2022/01/19 07:12:10;;;;;;;25.70;9.37;;;;;;;5.06;48.53;96282.00;5060841;28;20210;-91
2022/01/19 07:14:36;;;;;;;26.83;10.77;;;;;;;5.62;47.39;96279.34;5056150;28;20233;-91
2022/01/19 07:17:01;;;;;;;20.27;10.27;;;;;;;6.27;45.92;96301.78;5048101;28;20661;-89
2022/01/19 07:19:28;;;;;;;19.27;9.43;;;;;;;6.57;44.82;96252.72;5059971;28;20183;-91
2022/01/19 07:21:53;;;;;;;23.27;9.60;;;;;;;7.48;43.06;96256.53;5072396;28;20267;-91
2022/01/19 07:24:19;;;;;;;17.20;9.23;;;;;;;8.56;41.35;96242.59;5069021;28;20194;-91
2022/01/19 07:26:44;;;;;;;26.73;9.50;;;;;;;9.55;37.84;96213.31;5065063;28;20163;-88
2022/01/19 07:29:10;;;;;;;21.57;9.33;;;;;;;10.76;35.97;96225.75;5065054;28;20171;-90
2022/01/19 07:31:35;;;;;;;27.67;9.33;;;;;;;11.89;33.78;96207.06;5061059;28;20175;-90
2022/01/19 07:34:01;;;;;;;18.87;8.10;;;;;;;13.23;31.59;96228.28;5063153;28;20202;-91
2022/01/19 07:36:27;;;;;;;19.90;8.10;;;;;;;14.03;29.98;96209.13;5058361;28;20173;-92
2022/01/19 07:38:52;;;;;;;14.60;6.37;;;;;;;14.98;28.44;96213.41;5068566;28;20174;-92
2022/01/19 07:41:17;;;;;;;32.63;16.60;;;;;;;16.22;26.97;96249.50;5064669;28;20173;-91
2022/01/19 07:43:43;;;;;;;38.20;17.47;;;;;;;16.93;25.90;96174.81;5062617;28;20186;-90
2022/01/19 07:46:09;;;;;;;18.52;9.00;;;;;;;17.95;24.34;96242.66;5061810;28;20179;-90
2022/01/19 07:48:34;;;;;;;20.10;9.45;;;;;;;17.49;24.30;96168.53;5067224;28;20174;-90
2022/01/19 07:51:00;;;;;;;15.00;7.13;;;;;;;18.22;23.50;96192.50;5068157;28;20689;-89
2022/01/19 07:53:25;;;;;;;29.27;15.05;;;;;;;18.78;23.34;96183.31;5064714;28;20237;-91
2022/01/19 07:55:51;;;;;;;14.27;7.18;;;;;;;19.14;22.79;96206.34;5066125;28;20183;-92
2022/01/19 07:58:17;;;;;;;12.18;7.13;;;;;;;18.66;22.44;96191.31;5069939;28;20174;-90
2022/01/19 08:00:42;;;;;;;14.13;7.22;;;;;;;18.55;22.69;96215.22;5059391;28;20344;-89
2022/01/19 08:03:09;;;;;;;17.02;8.18;;;;;;;18.59;22.62;96232.47;5068173;28;20171;-89
2022/01/19 08:05:35;;;;;;;21.38;10.07;;;;;;;17.41;23.92;96266.53;5066294;28;20163;-90
2022/01/19 08:08:02;;;;;;;10.30;5.18;;;;;;;14.79;25.74;96147.94;5067219;28;20595;-91
2022/01/19 08:10:29;;;;;;;10.60;5.30;;;;;;;13.51;27.88;96207.06;5063996;28;20194;-89
2022/01/19 08:12:55;;;;;;;14.33;5.70;;;;;;;11.79;30.35;96116.84;5061166;28;20222;-89
2022/01/19 08:15:21;;;;;;;19.63;7.33;;;;;;;11.06;31.35;96159.94;5067879;28;20608;-91
2022/01/19 08:17:46;;;;;;;16.83;7.47;;;;;;;10.13;34.13;96218.94;5060448;28;20166;-90
2022/01/19 08:20:12;;;;;;;17.73;6.73;;;;;;;9.19;35.07;96228.72;5063532;28;20183;-89
2022/01/19 08:22:38;;;;;;;15.97;7.47;;;;;;;7.85;37.83;96181.00;5064099;28;20167;-89
2022/01/19 08:25:04;;;;;;;16.63;7.03;;;;;;;7.42;38.60;96168.09;5059872;28;20552;-89
2022/01/19 08:27:29;;;;;;;13.90;6.07;;;;;;;7.46;38.90;96206.91;5060975;28;20183;-90
2022/01/19 08:29:55;;;;;;;13.77;6.50;;;;;;;6.96;39.87;96214.69;5063192;28;20617;-89
2022/01/19 08:32:20;;;;;;;14.77;6.13;;;;;;;6.64;40.72;96197.00;5061991;28;20283;-88
2022/01/19 08:34:46;;;;;;;11.93;5.57;;;;;;;6.10;41.26;96207.66;5064188;28;20171;-86
2022/01/19 08:37:15;;;;;;;14.67;5.83;;;;;;;5.34;42.65;96158.38;5056169;28;20189;-89
2022/01/19 08:39:42;;;;;;;15.27;5.50;;;;;;;5.16;43.73;96220.97;5061530;28;20182;-91
2022/01/19 08:42:08;;;;;;;10.37;6.53;;;;;;;4.71;44.97;96214.81;5063397;28;20166;-87
2022/01/19 08:44:33;;;;;;;14.00;6.83;;;;;;;4.23;46.52;96179.22;5061491;28;20174;-87
2022/01/19 08:46:59;;;;;;;19.60;7.87;;;;;;;4.60;47.23;96246.25;5061780;28;20264;-88
2022/01/19 08:49:24;;;;;;;15.87;8.80;;;;;;;3.94;47.51;96152.34;5065778;28;20166;-88
2022/01/19 08:51:50;;;;;;;15.77;7.40;;;;;;;3.84;47.55;96156.75;5069027;28;20167;-90
2022/01/19 08:54:15;;;;;;;13.73;6.23;;;;;;;4.34;48.04;96246.00;5065056;28;20178;-88
2022/01/19 08:56:41;;;;;;;12.57;5.93;;;;;;;4.04;48.59;96207.88;5070528;28;20175;-86
2022/01/19 08:59:07;;;;;;;11.90;4.97;;;;;;;4.02;48.36;96220.22;5060275;28;20270;-87
2022/01/19 09:01:32;;;;;;;10.07;4.77;;;;;;;4.01;48.31;96232.41;5059652;28;20224;-89
2022/01/19 09:03:58;;;;;;;12.93;5.77;;;;;;;3.81;48.08;96209.91;5065857;28;20203;-85
2022/01/19 09:06:24;;;;;;;11.63;5.30;;;;;;;3.90;48.97;96209.09;5067302;28;20167;-87
2022/01/19 09:08:50;;;;;;;14.30;5.70;;;;;;;4.38;47.97;96219.53;5064006;28;20232;-88
2022/01/19 09:11:16;;;;;;;16.87;4.90;;;;;;;4.75;46.11;96240.47;5061232;28;20652;-86
2022/01/19 09:13:44;;;;;;;13.43;4.90;;;;;;;4.71;46.02;96240.88;5065863;28;20206;-90
2022/01/19 09:16:09;;;;;;;10.80;4.60;;;;;;;4.08;46.09;96159.75;5061898;28;20194;-86
2022/01/19 09:18:35;;;;;;;9.47;4.57;;;;;;;3.84;46.99;96154.97;5062109;28;20183;-85
2022/01/19 09:21:01;;;;;;;15.00;6.33;;;;;;;4.00;47.45;96189.09;5061136;28;20175;-88
2022/01/19 09:23:26;;;;;;;18.60;6.87;;;;;;;4.08;47.98;96155.34;5063536;28;20175;-88
2022/01/19 09:25:52;;;;;;;27.53;11.37;;;;;;;4.95;47.78;96212.53;5062377;28;20270;-88
2022/01/19 09:28:17;;;;;;;13.30;6.97;;;;;;;4.94;44.85;96167.34;5059265;28;20190;-85
2022/01/19 09:30:45;;;;;;;15.60;7.13;;;;;;;5.04;45.03;96187.38;5060240;28;20182;-87
2022/01/19 09:33:18;;;;;;;12.23;6.03;;;;;;;4.91;45.43;96161.63;5060497;28;20195;-87
2022/01/19 09:36:05;;;;;;;20.20;6.30;;;;;;;5.22;44.83;96193.47;5061053;28;20178;-89
2022/01/19 09:38:37;;;;;;;12.17;4.93;;;;;;;4.97;45.18;96204.56;5053588;28;20589;-88
2022/01/19 09:41:08;;;;;;;8.93;5.27;;;;;;;4.47;45.61;96179.59;5060808;28;20166;-86
2022/01/19 09:43:35;;;;;;;23.27;8.03;;;;;;;4.17;46.30;96156.31;5063164;28;20162;-89
2022/01/19 09:46:01;;;;;;;12.37;5.70;;;;;;;4.31;47.11;96186.34;5058672;28;20309;-87
2022/01/19 09:48:28;;;;;;;9.33;5.37;;;;;;;4.02;47.02;96124.66;5060641;28;20656;-86
2022/01/19 09:50:55;;;;;;;7.37;5.13;;;;;;;4.67;47.61;96190.78;5062605;28;20239;-90
2022/01/19 09:53:22;;;;;;;11.17;6.10;;;;;;;4.41;47.51;96114.16;5065544;28;20277;-91
2022/01/19 09:55:48;;;;;;;11.53;5.93;;;;;;;5.22;46.39;96180.41;5062170;28;20187;-91
2022/01/19 09:58:16;;;;;;;14.17;6.33;;;;;;;5.16;44.90;96141.84;5066865;28;20261;-88
2022/01/19 10:00:41;;;;;;;17.13;6.73;;;;;;;5.58;44.63;96181.31;5061915;28;20159;-91
2022/01/19 10:03:16;;;;;;;13.43;6.00;;;;;;;5.64;44.02;96192.00;5058651;28;20566;-92
2022/01/19 10:06:03;;;;;;;11.40;5.23;;;;;;;5.43;43.84;96186.22;5054658;28;20188;-91
2022/01/19 10:08:42;;;;;;;9.60;4.60;;;;;;;5.11;45.20;96164.94;5049668;28;20222;-90
2022/01/19 10:11:17;;;;;;;10.20;4.90;;;;;;;5.26;45.29;96168.72;5061773;28;20175;-90
2022/01/19 10:16:59;;;;;;;17.27;8.73;;;;;;;5.43;45.50;96162.72;5061476;28;20224;-88
2022/01/19 10:19:26;;;;;;;18.90;7.67;;;;;;;5.44;45.05;96153.09;5059945;28;20189;-90
2022/01/19 10:22:13;;;;;;;10.03;4.77;;;;;;;5.62;44.71;96167.00;5056389;28;20182;-90
2022/01/19 10:25:01;;;;;;;11.90;5.57;;;;;;;5.57;44.41;96159.59;5066475;28;20186;-88
2022/01/19 10:27:45;;;;;;;11.23;5.57;;;;;;;5.66;44.92;96165.72;5059625;28;20174;-88
2022/01/19 10:30:14;;;;;;;12.17;5.90;;;;;;;5.48;45.02;96146.59;5051903;28;20203;-88
2022/01/19 10:32:52;;;;;;;13.00;5.37;;;;;;;5.56;44.59;96157.13;5064288;28;20286;-89
2022/01/19 10:35:33;;;;;;;17.37;6.33;;;;;;;5.63;45.27;96156.41;5054041;28;20236;-87
2022/01/19 10:38:16;;;;;;;11.33;4.63;;;;;;;5.56;44.90;96157.13;5064230;28;20163;-90
2022/01/19 10:41:05;;;;;;;20.90;6.57;;;;;;;5.42;45.33;96161.09;5062239;28;20671;-90
2022/01/19 10:43:39;;;;;;;10.20;5.43;;;;;;;5.38;45.41;96144.06;5060133;28;20186;-90
2022/01/19 10:46:28;;;;;;;15.37;6.57;;;;;;;5.50;45.14;96135.06;5051593;28;20324;-90
2022/01/19 10:49:00;;;;;;;12.70;7.33;;;;;;;5.29;44.96;96096.16;5054007;28;20175;-90
2022/01/19 10:51:31;;;;;;;14.63;7.00;;;;;;;5.30;44.94;96087.34;5059194;28;20567;-90
2022/01/19 10:54:13;;;;;;;15.67;6.43;;;;;;;5.23;45.54;96086.31;5060293;28;20186;-90
2022/01/19 10:56:41;;;;;;;12.37;5.87;;;;;;;5.21;46.02;96095.25;5061225;28;20174;-90
2022/01/19 10:59:13;;;;;;;16.07;5.43;;;;;;;5.25;46.01;96107.88;5057460;28;20682;-90
2022/01/19 11:01:46;;;;;;;16.27;7.50;;;;;;;5.16;46.18;96097.50;5059926;28;20187;-91
2022/01/19 11:04:21;;;;;;;16.03;7.53;;;;;;;4.86;46.75;96062.09;5051673;28;20190;-91
2022/01/19 11:06:49;;;;;;;8.03;4.83;;;;;;;4.85;46.82;96091.75;5057623;28;20586;-87
2022/01/19 11:09:15;;;;;;;8.13;4.27;;;;;;;4.67;47.25;96046.56;5060837;28;20270;-90
2022/01/19 11:11:43;;;;;;;11.90;4.93;;;;;;;4.74;47.11;96052.81;5059395;28;20206;-89
2022/01/19 11:14:13;;;;;;;9.20;4.73;;;;;;;4.79;46.87;96061.84;5047135;28;20214;-88
2022/01/19 11:16:39;;;;;;;15.60;6.30;;;;;;;4.70;46.99;96051.47;5054535;28;20689;-87
2022/01/19 11:19:04;;;;;;;17.20;5.93;;;;;;;4.65;47.62;96038.88;5051749;28;20189;-89
2022/01/19 11:21:41;;;;;;;11.83;6.53;;;;;;;4.55;47.41;96019.84;5056344;28;20187;-87
2022/01/19 11:24:51;;;;;;;18.87;7.50;;;;;;;4.83;47.58;96065.81;5049851;28;20561;-87
2022/01/19 11:27:18;;;;;;;10.67;5.13;;;;;;;4.83;46.91;96058.00;5005080;28;20667;-88
2022/01/19 11:29:43;;;;;;;16.80;7.17;;;;;;;4.86;47.38;96062.09;5047393;28;20198;-88
2022/01/19 11:32:16;;;;;;;18.43;8.23;;;;;;;4.89;47.84;96057.41;5051909;28;20179;-87
2022/01/19 11:34:50;;;;;;;12.37;6.03;;;;;;;4.92;47.07;96058.91;5054464;28;20205;-85
2022/01/19 11:37:31;;;;;;;19.50;8.30;;;;;;;4.59;47.68;96007.31;5055277;28;20689;-85
2022/01/19 11:40:05;;;;;;;15.47;6.43;;;;;;;4.89;47.24;96056.59;5086286;28;20285;-90
2022/01/19 11:42:31;;;;;;;17.40;6.87;;;;;;;4.84;47.38;96049.19;5053807;28;20185;-87
2022/01/19 11:44:57;;;;;;;17.33;7.43;;;;;;;4.65;47.45;96022.41;5058726;28;20599;-86
2022/01/19 11:47:28;;;;;;;20.67;9.40;;;;;;;4.37;46.73;95972.03;5050565;28;20182;-87
2022/01/19 11:49:56;;;;;;;17.20;7.37;;;;;;;4.90;46.83;96038.19;5054886;28;20164;-87
2022/01/19 11:52:33;;;;;;;10.20;6.20;;;;;;;4.63;46.83;95999.06;5055616;28;20203;-86
2022/01/19 11:55:13;;;;;;;11.50;4.70;;;;;;;4.66;46.67;96005.78;5058423;28;20179;-88
2022/01/19 11:57:40;;;;;;;11.83;5.70;;;;;;;4.48;47.12;95984.88;5032496;28;20183;-89
2022/01/19 12:00:13;;;;;;;15.47;6.50;;;;;;;4.83;47.33;96034.53;5053003;28;20187;-89
2022/01/19 12:02:49;;;;;;;11.80;6.40;;;;;;;4.79;47.68;96020.13;5060598;28;20184;-88
2022/01/19 12:05:24;;;;;;;17.70;8.40;;;;;;;4.65;47.18;95991.09;5056509;28;20178;-88
2022/01/19 12:07:55;;;;;;;15.80;8.13;;;;;;;4.82;48.03;96026.84;5057303;28;20210;-88
2022/01/19 12:10:36;;;;;;;13.27;6.07;;;;;;;4.88;47.76;96018.41;5057428;28;20186;-88
2022/01/19 12:13:29;;;;;;;14.10;6.30;;;;;;;4.90;47.19;96014.69;5062155;28;20651;-88
2022/01/19 12:16:09;;;;;;;13.00;5.37;;;;;;;4.90;47.14;96001.66;5055695;28;20611;-88
2022/01/19 12:18:51;;;;;;;15.87;7.70;;;;;;;4.69;47.55;95971.56;5063210;28;20190;-88
2022/01/19 12:21:41;;;;;;;22.47;7.37;;;;;;;4.85;47.47;95980.38;5055343;28;20204;-89
2022/01/19 12:24:29;;;;;;;10.03;4.97;;;;;;;4.83;46.64;95971.91;5056617;28;20179;-88
2022/01/19 12:27:13;;;;;;;13.90;6.50;;;;;;;5.00;47.28;96000.78;5059874;28;20179;-89
2022/01/19 12:29:50;;;;;;;12.47;7.70;;;;;;;4.95;47.54;95993.38;5059663;28;20183;-88
2022/01/19 12:32:15;;;;;;;21.00;6.63;;;;;;;4.82;47.94;95998.97;5059150;28;20197;-88
2022/01/19 12:34:44;;;;;;;12.97;6.37;;;;;;;4.82;48.08;96001.56;5064248;28;20182;-88
2022/01/19 12:37:12;;;;;;;13.33;7.00;;;;;;;4.87;48.23;96001.13;5056640;28;20638;-88
2022/01/19 12:39:41;;;;;;;8.80;5.63;;;;;;;4.53;48.51;95935.72;5058344;28;20187;-88
2022/01/19 12:42:27;;;;;;;17.07;5.50;;;;;;;4.41;47.99;95896.00;5061648;28;20167;-87
2022/01/19 12:44:56;;;;;;;13.80;6.97;;;;;;;4.66;47.82;95938.81;5054738;28;20163;-88
2022/01/19 12:47:24;;;;;;;13.57;6.20;;;;;;;4.96;48.00;95975.94;5054596;28;20178;-87
2022/01/19 12:49:51;;;;;;;16.27;8.00;;;;;;;4.71;47.78;95941.78;5058829;28;20182;-88
2022/01/19 12:52:18;;;;;;;13.63;5.63;;;;;;;4.69;47.69;95935.88;5058556;28;20218;-88
2022/01/19 12:54:44;;;;;;;15.30;6.57;;;;;;;4.96;48.03;95971.53;5054738;28;20238;-88
2022/01/19 12:57:15;;;;;;;16.93;7.03;;;;;;;4.78;48.01;95942.81;5056908;28;20171;-88